createdAt,value
2022-10-10T00:01:20.843Z,3.50
2022-10-10T00:03:52.020Z,3.40
2022-10-10T00:06:20.174Z,4.00
2022-10-10T00:08:48.088Z,3.40
2022-10-10T00:11:17.122Z,3.40
2022-10-10T00:13:45.475Z,3.40
2022-10-10T00:16:15.931Z,3.40
2022-10-10T00:18:43.668Z,3.40
2022-10-10T00:21:11.405Z,3.50
2022-10-10T00:26:08.940Z,3.40
2022-10-10T00:28:40.134Z,3.50
2022-10-10T00:31:09.181Z,3.50
2022-10-10T00:33:37.284Z,3.50
2022-10-10T00:36:05.790Z,3.50
2022-10-10T00:38:33.532Z,3.40
2022-10-10T00:41:01.628Z,3.30
2022-10-10T00:43:30.009Z,3.30
2022-10-10T00:45:57.998Z,3.20
2022-10-10T00:48:31.891Z,3.30
2022-10-10T00:51:09.225Z,3.20
2022-10-10T00:54:03.712Z,3.10
2022-10-10T00:56:40.362Z,3.20
2022-10-10T01:01:40.325Z,3.20
2022-10-10T01:04:27.805Z,3.30
2022-10-10T01:06:55.579Z,3.30
2022-10-10T01:09:23.318Z,3.20
2022-10-10T01:12:17.986Z,3.50
2022-10-10T01:15:00.879Z,3.30
2022-10-10T01:17:43.734Z,3.30
2022-10-10T01:20:48.297Z,3.30
2022-10-10T01:23:27.774Z,3.30
2022-10-10T01:29:01.639Z,3.20
2022-10-10T01:31:33.448Z,3.20
2022-10-10T01:34:18.861Z,3.20
2022-10-10T01:37:09.664Z,3.10
2022-10-10T01:39:58.925Z,3.10
2022-10-10T01:43:05.173Z,3.30
2022-10-10T01:48:04.882Z,2.90
2022-10-10T01:50:38.839Z,2.90
2022-10-10T01:53:39.153Z,2.90
2022-10-10T01:56:12.259Z,2.90
2022-10-10T02:01:35.055Z,2.90
2022-10-10T02:04:19.746Z,2.90
2022-10-10T02:07:01.944Z,3.30
2022-10-10T02:09:38.610Z,2.60
2022-10-10T02:12:08.073Z,2.80
2022-10-10T02:14:42.019Z,2.80
2022-10-10T02:17:12.845Z,2.70
2022-10-10T02:19:46.079Z,3.00
2022-10-10T02:22:15.500Z,2.70
2022-10-10T02:24:43.609Z,5.00
2022-10-10T02:27:31.460Z,2.80
2022-10-10T02:30:02.803Z,2.60
2022-10-10T02:32:43.399Z,2.60
2022-10-10T02:40:17.493Z,2.60
2022-10-10T02:42:45.977Z,2.50
2022-10-10T02:45:13.762Z,2.50
2022-10-10T02:47:41.133Z,2.50
2022-10-10T02:50:08.898Z,2.40
2022-10-10T02:52:36.873Z,2.50
2022-10-10T02:55:04.782Z,2.50
2022-10-10T03:00:01.850Z,2.50
2022-10-10T03:02:29.118Z,2.50
2022-10-10T03:04:56.699Z,2.50
2022-10-10T03:09:52.389Z,2.90
2022-10-10T03:12:19.757Z,2.60
2022-10-10T03:17:15.821Z,2.60
2022-10-10T03:19:43.380Z,2.50
2022-10-10T03:24:38.573Z,2.50
2022-10-10T03:27:06.289Z,1.20
2022-10-10T03:32:06.874Z,2.70
2022-10-10T03:34:36.644Z,1.60
2022-10-10T03:37:04.245Z,2.80
2022-10-10T03:39:32.157Z,2.70
2022-10-10T03:41:59.874Z,3.10
2022-10-10T03:46:54.849Z,3.10
2022-10-10T03:51:50.313Z,3.40
2022-10-10T03:56:45.700Z,3.30
2022-10-10T03:59:13.441Z,3.90
2022-10-10T04:04:08.973Z,3.40
2022-10-10T04:06:36.749Z,3.50
2022-10-10T04:09:04.561Z,3.50
2022-10-10T04:11:31.977Z,3.50
2022-10-10T04:14:00.883Z,3.80
2022-10-10T04:16:28.535Z,3.70
2022-10-10T04:18:56.465Z,3.70
2022-10-10T04:21:23.768Z,3.80
2022-10-10T04:23:51.504Z,3.70
2022-10-10T04:26:19.057Z,3.60
2022-10-10T04:28:46.910Z,3.70
2022-10-10T04:33:42.202Z,3.60
2022-10-10T04:36:09.740Z,3.60
2022-10-10T04:41:05.178Z,0.60
2022-10-10T04:43:34.504Z,3.60
2022-10-10T04:46:02.126Z,3.90
2022-10-10T04:48:29.452Z,3.60
2022-10-10T04:50:58.670Z,3.70
2022-10-10T04:55:54.345Z,3.70
2022-10-10T04:58:21.977Z,3.70
2022-10-10T05:00:54.821Z,3.80
2022-10-10T05:03:23.332Z,3.80
2022-10-10T05:05:51.036Z,3.90
2022-10-10T05:08:19.461Z,4.00
2022-10-10T05:10:47.810Z,4.00
2022-10-10T05:13:17.443Z,4.00
2022-10-10T05:18:14.711Z,4.20
2022-10-10T05:20:44.031Z,3.90
2022-10-10T05:23:11.783Z,4.20
2022-10-10T05:25:39.394Z,4.00
2022-10-10T05:28:06.858Z,4.30
2022-10-10T05:33:02.382Z,4.50
2022-10-10T05:35:30.653Z,4.40
2022-10-10T05:45:21.970Z,4.70
2022-10-10T05:47:49.439Z,5.00
2022-10-10T05:50:38.621Z,5.10
2022-10-10T05:55:35.869Z,5.20
2022-10-10T05:58:06.128Z,5.20
2022-10-10T06:03:03.090Z,5.00
2022-10-10T06:05:30.585Z,5.50
2022-10-10T06:08:10.693Z,5.50
2022-10-10T06:10:41.888Z,5.60
2022-10-10T06:18:07.747Z,5.80
2022-10-10T06:20:39.088Z,5.90
2022-10-10T06:23:08.250Z,5.80
2022-10-10T06:25:41.580Z,5.90
2022-10-10T06:30:48.709Z,6.50
2022-10-10T06:33:19.163Z,6.20
2022-10-10T06:35:49.578Z,6.40
2022-10-10T06:38:17.647Z,5.50
2022-10-10T06:43:15.317Z,6.40
2022-10-10T06:45:47.570Z,6.70
2022-10-10T06:48:15.884Z,6.80
2022-10-10T06:50:43.871Z,6.60
2022-10-10T06:53:14.105Z,8.00
2022-10-10T06:55:47.486Z,6.90
2022-10-10T07:03:12.858Z,6.90
2022-10-10T07:08:10.615Z,7.20
2022-10-10T07:27:54.029Z,7.60
2022-10-10T07:30:21.791Z,7.60
2022-10-10T07:42:41.640Z,7.70
2022-10-10T07:45:12.223Z,8.10
2022-10-10T07:47:41.907Z,7.80
2022-10-10T08:00:06.495Z,8.30
2022-10-10T08:05:01.802Z,8.50
2022-10-10T08:07:29.625Z,8.30
2022-10-10T08:12:25.219Z,8.60
2022-10-10T08:14:54.213Z,6.90
2022-10-10T08:17:23.381Z,8.60
2022-10-10T08:24:48.043Z,10.40
2022-10-10T08:27:17.816Z,9.00
2022-10-10T08:29:45.406Z,8.80
2022-10-10T08:32:13.226Z,9.50
2022-10-10T08:39:39.147Z,9.10
2022-10-10T08:44:49.310Z,11.50
2022-10-10T08:47:21.642Z,12.60
2022-10-10T08:50:27.119Z,14.60
2022-10-10T08:55:38.218Z,15.80
2022-10-10T08:58:24.413Z,16.00
2022-10-10T09:01:23.874Z,15.30
2022-10-10T09:04:18.175Z,12.40
2022-10-10T09:06:51.495Z,15.20
2022-10-10T09:12:21.595Z,15.40
2022-10-10T09:15:31.493Z,16.10
2022-10-10T09:18:19.525Z,17.70
2022-10-10T09:21:00.964Z,19.20
2022-10-10T09:23:54.823Z,20.40
2022-10-10T09:26:38.523Z,-9.70
2022-10-10T09:29:24.031Z,19.50
2022-10-10T09:31:56.415Z,18.40
2022-10-10T09:34:36.432Z,19.50
2022-10-10T09:37:06.212Z,20.60
2022-10-10T09:39:44.567Z,22.20
2022-10-10T09:47:14.876Z,21.90
2022-10-10T09:55:24.679Z,17.80
2022-10-10T10:00:29.867Z,16.20
2022-10-10T10:05:55.918Z,15.30
2022-10-10T10:08:28.712Z,15.40
2022-10-10T10:10:58.452Z,15.50
2022-10-10T10:13:36.591Z,15.10
2022-10-10T10:16:14.675Z,15.70
2022-10-10T10:18:48.373Z,15.80
2022-10-10T10:21:23.984Z,15.90
2022-10-10T10:23:59.405Z,15.60
2022-10-10T10:28:57.763Z,17.00
2022-10-10T10:31:42.583Z,18.30
2022-10-10T10:34:47.059Z,19.00
2022-10-10T10:42:56.123Z,17.20
2022-10-10T10:45:41.970Z,18.80
2022-10-10T10:48:32.018Z,18.90
2022-10-10T10:51:26.868Z,17.10
2022-10-10T10:54:16.352Z,16.30
2022-10-10T10:56:58.943Z,16.80
2022-10-10T11:03:20.973Z,18.10
2022-10-10T11:06:28.103Z,18.30
2022-10-10T11:11:29.859Z,19.40
2022-10-10T11:14:22.286Z,19.80
2022-10-10T11:16:56.623Z,20.60
2022-10-10T11:19:47.141Z,21.30
2022-10-10T11:22:20.004Z,20.60
2022-10-10T11:27:42.094Z,21.20
2022-10-10T11:30:29.108Z,20.30
2022-10-10T11:33:14.742Z,20.00
2022-10-10T11:36:07.803Z,18.10
2022-10-10T11:46:45.951Z,22.50
2022-10-10T12:02:40.874Z,21.20
2022-10-10T12:07:54.649Z,19.40
2022-10-10T12:13:33.832Z,17.40
2022-10-10T12:16:17.371Z,16.90
2022-10-10T12:18:54.854Z,16.80
2022-10-10T12:21:26.326Z,16.90
2022-10-10T12:24:17.307Z,16.70
2022-10-10T12:29:50.206Z,15.70
2022-10-10T12:32:27.291Z,13.00
2022-10-10T12:37:36.543Z,14.70
2022-10-10T12:40:10.125Z,14.80
2022-10-10T12:42:50.107Z,14.30
2022-10-10T12:53:20.711Z,13.80
2022-10-10T12:55:51.332Z,13.70
2022-10-10T13:00:58.436Z,13.60
2022-10-10T13:03:47.774Z,13.60
2022-10-10T13:06:39.461Z,13.70
2022-10-10T13:09:35.113Z,13.70
2022-10-10T13:12:06.445Z,13.70
2022-10-10T13:14:44.361Z,13.60
2022-10-10T13:17:37.122Z,13.60
2022-10-10T13:20:06.181Z,13.60
2022-10-10T13:22:42.947Z,13.60
2022-10-10T13:35:13.496Z,13.40
2022-10-10T13:37:42.909Z,13.50
2022-10-10T13:40:27.092Z,14.00
2022-10-10T13:45:31.011Z,15.20
2022-10-10T13:50:33.256Z,15.90
2022-10-10T13:53:32.140Z,15.70
2022-10-10T14:05:58.652Z,14.60
2022-10-10T14:11:07.832Z,14.60
2022-10-10T14:23:38.436Z,14.20
2022-10-10T14:26:08.274Z,14.10
2022-10-10T14:28:39.264Z,14.10
2022-10-10T14:36:03.680Z,13.80
2022-10-10T14:48:23.998Z,12.80
2022-10-10T14:50:51.877Z,12.60
2022-10-10T14:53:19.754Z,12.50
2022-10-10T14:55:48.543Z,12.40
2022-10-10T14:58:21.871Z,12.20
2022-10-10T15:00:54.508Z,12.00
2022-10-10T15:05:50.918Z,11.60
2022-10-10T15:10:47.605Z,11.30
2022-10-10T15:15:44.833Z,11.00
2022-10-10T15:18:39.656Z,10.60
2022-10-10T15:23:29.939Z,10.60
2022-10-10T15:26:00.778Z,10.30
2022-10-10T15:30:57.689Z,10.10
2022-10-10T15:33:25.562Z,9.80
2022-10-10T15:36:09.666Z,9.70
2022-10-10T15:38:38.396Z,9.60
2022-10-10T15:41:09.283Z,9.50
2022-10-10T15:43:52.108Z,9.40
2022-10-10T15:46:21.530Z,9.30
2022-10-10T15:48:49.454Z,9.20
2022-10-10T15:51:17.350Z,9.10
2022-10-10T15:56:16.985Z,8.90
2022-10-10T15:58:44.976Z,8.90
2022-10-10T16:01:20.387Z,8.70
2022-10-10T16:03:49.502Z,8.70
2022-10-10T16:06:18.488Z,8.60
2022-10-10T16:08:52.761Z,8.60
2022-10-10T16:11:32.302Z,8.50
2022-10-10T16:21:25.103Z,8.30
2022-10-10T16:26:32.203Z,8.20
2022-10-10T16:31:29.471Z,8.00
2022-10-10T16:36:28.583Z,7.90
2022-10-10T16:38:57.921Z,7.80
2022-10-10T16:41:47.083Z,7.70
2022-10-10T16:46:44.808Z,8.00
2022-10-10T16:49:16.462Z,7.70
2022-10-10T16:51:44.245Z,7.60
2022-10-10T16:54:12.046Z,7.60
2022-10-10T16:56:39.738Z,7.50
2022-10-10T16:59:07.852Z,7.40
2022-10-10T17:19:20.342Z,6.90
2022-10-10T17:24:18.008Z,6.70
2022-10-10T17:26:45.797Z,6.60
2022-10-10T17:29:14.038Z,6.40
2022-10-10T17:31:41.885Z,6.40
2022-10-10T17:41:33.537Z,6.10
2022-10-10T17:49:09.822Z,6.00
2022-10-10T18:08:58.193Z,5.70
2022-10-10T18:11:31.196Z,5.70
2022-10-10T18:16:36.652Z,5.60
2022-10-10T18:19:08.106Z,5.60
2022-10-10T18:24:04.016Z,5.60
2022-10-10T18:29:00.119Z,5.60
2022-10-10T18:31:33.823Z,5.60
2022-10-10T18:34:01.880Z,5.60
2022-10-10T18:36:31.657Z,5.60
2022-10-10T18:39:04.468Z,5.50
2022-10-10T18:44:08.067Z,5.50
2022-10-10T18:46:35.986Z,5.40
2022-10-10T18:49:04.750Z,5.40
2022-10-10T18:54:07.591Z,5.40
2022-10-10T18:56:37.987Z,5.40
2022-10-10T18:59:07.226Z,5.30
2022-10-10T19:01:36.866Z,5.30
2022-10-10T19:04:06.109Z,5.30
2022-10-10T19:09:06.541Z,5.40
2022-10-10T19:11:39.245Z,5.00
2022-10-10T19:14:12.242Z,5.20
2022-10-10T19:16:41.491Z,5.20
2022-10-10T19:21:39.819Z,5.20
2022-10-10T19:24:08.990Z,5.20
2022-10-10T19:29:07.532Z,5.10
2022-10-10T19:34:04.354Z,5.10
2022-10-10T19:36:32.103Z,5.10
2022-10-10T19:39:02.671Z,5.20
2022-10-10T19:41:30.807Z,5.10
2022-10-10T19:53:54.026Z,5.20
2022-10-10T19:56:26.644Z,5.10
2022-10-10T19:58:55.788Z,5.00
2022-10-10T20:08:52.302Z,4.70
2022-10-10T20:11:20.464Z,4.70
2022-10-10T20:13:53.160Z,4.70
2022-10-10T20:16:21.611Z,4.70
2022-10-10T20:18:49.339Z,4.80
2022-10-10T20:23:48.515Z,4.70
2022-10-10T20:26:19.553Z,4.70
2022-10-10T20:31:20.222Z,4.60
2022-10-10T20:33:49.317Z,4.60
2022-10-10T20:36:17.890Z,4.60
2022-10-10T20:38:51.541Z,4.60
2022-10-10T20:41:19.223Z,4.60
2022-10-10T20:43:46.532Z,4.70
2022-10-10T20:48:42.857Z,4.70
2022-10-10T20:51:13.639Z,4.70
2022-10-10T20:53:45.209Z,4.60
2022-10-10T20:56:13.464Z,4.70
2022-10-10T20:58:42.531Z,4.60
2022-10-10T21:01:15.374Z,4.60
2022-10-10T21:06:17.526Z,4.60
2022-10-10T21:11:14.475Z,4.60
2022-10-10T21:16:14.494Z,4.70
2022-10-10T21:21:27.711Z,4.70
2022-10-10T21:23:56.764Z,4.60
2022-10-10T21:31:26.615Z,4.50
2022-10-10T21:41:20.062Z,4.40
2022-10-10T21:43:51.482Z,4.40
2022-10-10T21:46:23.409Z,4.40
2022-10-10T21:48:52.528Z,4.40
2022-10-10T21:53:48.867Z,4.30
2022-10-10T21:58:45.376Z,4.40
2022-10-10T22:01:16.609Z,4.30
2022-10-10T22:03:46.542Z,4.30
2022-10-10T22:06:16.682Z,4.20
2022-10-10T22:08:44.864Z,4.20
2022-10-10T22:11:15.082Z,4.20
2022-10-10T22:13:43.345Z,4.30
2022-10-10T22:16:11.913Z,4.30
2022-10-10T22:18:42.892Z,4.30
2022-10-10T22:21:15.735Z,4.40
2022-10-10T22:23:44.511Z,4.50
2022-10-10T22:26:14.781Z,4.50
2022-10-10T22:28:42.671Z,4.50
2022-10-10T22:31:13.984Z,4.50
2022-10-10T22:41:10.070Z,4.60
2022-10-10T22:43:38.080Z,4.70
2022-10-10T22:48:34.754Z,4.60
2022-10-10T22:51:08.137Z,4.60
2022-10-10T22:56:04.420Z,4.50
2022-10-10T22:58:32.352Z,4.50
2022-10-10T23:01:08.860Z,4.50
2022-10-10T23:11:00.787Z,4.40
2022-10-10T23:18:24.998Z,4.40
2022-10-10T23:23:20.559Z,4.40
2022-10-10T23:25:48.787Z,4.30
2022-10-10T23:28:18.979Z,4.30
2022-10-10T23:33:16.264Z,4.30
2022-10-10T23:35:43.762Z,4.40
2022-10-10T23:38:11.727Z,4.40
2022-10-10T23:40:39.533Z,4.40
2022-10-10T23:45:40.010Z,4.50
2022-10-10T23:48:09.144Z,4.50
2022-10-10T23:50:36.963Z,4.50
2022-10-10T23:55:32.702Z,4.50
